Wrangell Airport
PAWG : rendu visible

Aérodrome :











RETROUVEZ-NOUS SUR...

 
LOGIN :

S'inscrire | Disclaimer

   EN    FR    IT 

 









Légende :    VFR   VFR Marginal   IFR   IFR Intensif   IFR Très Intensif
Visi : 
Plafond : 
>= 8 km
>= 3000ft
5 à 8 km
1000 à 3000 ft
1500m à 5 km
500 à 1000 ft
800 à 1500m
200 à 500 ft
< 800m
< 200 ft
Symboles :   Orages  Brouillard  Fortes neiges  Fortes précipitations  Vent > 20 kt






- Altitude de l'aérodrome : 49 ft
- Code IATA : WRG


PAWG - Wrangell

DERNIER METAR :
  • 200956Z AUTO 12003KT 10SM OVC060 09/08 A2997 RMK AO2 SLP147 T00940083 TSNO

METARs EXPIRÉS :
  • 200856Z AUTO 11003KT 10SM BKN044 OVC050 09/08 A2997 RMK AO2 SLP150 T00940083 401500094 50005 TSNO

TAF PAWG
Valide du 20 à 06h jusqu'au 21 à 06h UTC


200539Z 2006/2106 22006KT P6SM SCT030 SCT100
FM200900 VRB03KT P6SM VCFG SCT004 BKN050
FM202100 10006KT P6SM -SHRA SCT025 BKN050
FM210400 10006KT 4SM -SHRA BR SCT015 BKN030 AMD LTD TO CLD VIS AND WIND 2006/2015
FIR PAZA / Amérique du Nord



MET'MAP, la Météo Aéronautique d'un coup d'oeil ! - Copyright ORBIFLY Décembre 2007 - Disclaimer

ORBIFLY MET'MAP TEAM :

Programmation & Développement : Alexandra Zaïnal
Sur une idée originale de : Baudouin d'Aumeries
Assistance à la programmation : Marc-Olivier Méhu
Soutien technique & logistique : Manuel Goepfert

Contact : metmap@orbifly.com




SOURCES & CREDITS :

   NOAA       Earth
Advisory